Time;durP1;ratioP1;P1;durP2;ratioP2;P2;SDS_P1;SDS_P2;PMS_P1;PMS_P2;Temp;Humidity;BMP_temperature;BMP_pressure;BME280_temperature;BME280_humidity;BME280_pressure;Samples;Min_cycle;Max_cycle;Signal;HPM_P1;HPM_P2
2021/06/15 00:00:22;;;;;;;;;;;14.60;99.90;;;;;;5086649;28;19952;-71
2021/06/15 00:02:47;;;;;;;;;;;14.50;99.90;;;;;;5085322;28;19908;-71
2021/06/15 00:05:14;;;;;;;;;;;14.50;99.90;;;;;;5086954;28;19915;-71
2021/06/15 00:07:40;;;;;;;;;;;14.40;99.90;;;;;;5086679;28;20391;-71
2021/06/15 00:10:07;;;;;;;;;;;14.30;99.90;;;;;;5087255;28;19908;-71
2021/06/15 00:12:32;;;;;;;;;;;14.20;99.90;;;;;;5086841;28;19923;-71
2021/06/15 00:14:58;;;;;;;;;;;14.10;99.90;;;;;;5087105;28;19916;-71
2021/06/15 00:17:23;;;;;;;;;;;14.10;99.90;;;;;;5085713;28;19995;-72
2021/06/15 00:19:49;;;;;;;;;;;14.10;99.90;;;;;;5087273;28;20006;-71
2021/06/15 00:22:14;;;;;;;;;;;14.10;99.90;;;;;;5086905;28;20388;-72
2021/06/15 00:24:40;;;;;;;;;;;14.00;99.90;;;;;;5086901;28;20361;-71
2021/06/15 00:27:05;;;;;;;;;;;14.10;99.90;;;;;;5086056;28;19912;-72
2021/06/15 00:29:31;;;;;;;;;;;14.00;99.90;;;;;;5086848;28;19912;-72
2021/06/15 00:31:56;;;;;;;;;;;13.90;99.90;;;;;;5087324;28;19931;-71
2021/06/15 00:34:22;;;;;;;;;;;13.90;99.90;;;;;;5086561;28;19940;-71
2021/06/15 00:36:47;;;;;;;;;;;13.90;99.90;;;;;;5086155;28;19915;-72
2021/06/15 00:39:13;;;;;;;;;;;13.90;99.90;;;;;;5086710;28;20146;-72
2021/06/15 00:41:38;;;;;;;;;;;13.90;99.90;;;;;;5086235;28;19966;-71
2021/06/15 00:44:07;;;;;;;;;;;13.80;99.90;;;;;;5086362;28;19916;-71
2021/06/15 00:46:32;;;;;;;;;;;13.80;99.90;;;;;;5083131;28;20006;-71
2021/06/15 00:48:58;;;;;;;;;;;13.70;99.90;;;;;;5087158;28;20046;-71
2021/06/15 00:51:23;;;;;;;;;;;13.70;99.90;;;;;;5086108;28;20361;-71
2021/06/15 00:53:49;;;;;;;;;;;13.70;99.90;;;;;;5085653;28;19916;-71
2021/06/15 00:56:14;;;;;;;;;;;13.70;99.90;;;;;;5086308;28;19915;-71
2021/06/15 00:58:40;;;;;;;;;;;13.60;99.90;;;;;;5088623;28;20072;-72
2021/06/15 01:01:07;;;;;;;;;;;13.60;99.90;;;;;;5090632;28;20321;-72
2021/06/15 01:03:33;;;;;;;;;;;13.60;99.90;;;;;;5089764;28;19919;-71
2021/06/15 01:06:02;;;;;;;;;;;13.60;99.90;;;;;;5089499;28;19912;-71
2021/06/15 01:08:38;;;;;;;;;;;13.50;99.90;;;;;;5089862;28;19909;-71
2021/06/15 01:11:04;;;;;;;;;;;13.40;99.90;;;;;;5089891;28;19908;-71
2021/06/15 01:13:45;;;;;;;;;;;13.40;99.90;;;;;;5089561;28;19923;-71
2021/06/15 01:16:27;;;;;;;;;;;13.30;99.90;;;;;;5089497;28;20392;-71
2021/06/15 01:19:23;;;;;;;;;;;13.30;99.90;;;;;;5089922;28;19909;-71
2021/06/15 01:21:56;;;;;;;;;;;13.30;99.90;;;;;;5080676;28;19916;-71
2021/06/15 01:24:28;;;;;;;;;;;13.30;99.90;;;;;;5086625;28;20297;-72
2021/06/15 01:27:03;;;;;;;;;;;13.30;99.90;;;;;;5088743;28;20403;-71
2021/06/15 01:29:34;;;;;;;;;;;13.20;99.90;;;;;;5089996;28;19915;-71
2021/06/15 01:32:04;;;;;;;;;;;13.10;99.90;;;;;;5089437;28;20003;-71
2021/06/15 01:34:31;;;;;;;;;;;13.10;99.90;;;;;;5089592;28;19915;-72
2021/06/15 01:37:04;;;;;;;;;;;13.10;99.90;;;;;;5088350;28;19957;-71
2021/06/15 01:39:33;;;;;;;;;;;13.10;99.90;;;;;;5089430;28;19969;-72
2021/06/15 01:41:58;;;;;;;;;;;13.00;99.90;;;;;;5089291;28;19959;-71
2021/06/15 01:44:25;;;;;;;;;;;13.00;99.90;;;;;;5088700;28;20359;-71
2021/06/15 01:47:08;;;;;;;;;;;13.00;99.90;;;;;;5088555;28;20245;-71
2021/06/15 01:49:41;;;;;;;;;;;13.00;99.90;;;;;;5088225;28;19943;-71
2021/06/15 01:52:09;;;;;;;;;;;13.00;99.90;;;;;;5089826;28;19919;-71
2021/06/15 01:54:36;;;;;;;;;;;13.00;99.90;;;;;;5086112;28;19941;-71
2021/06/15 01:57:02;;;;;;;;;;;13.00;99.90;;;;;;5090103;28;19961;-71
2021/06/15 01:59:27;;;;;;;;;;;12.90;99.90;;;;;;5089007;28;19916;-72
2021/06/15 02:01:55;;;;;;;;;;;12.90;99.90;;;;;;5087738;28;20017;-71
2021/06/15 02:04:21;;;;;;;;;;;12.80;99.90;;;;;;5086703;28;19924;-71
2021/06/15 02:06:47;;;;;;;;;;;12.80;99.90;;;;;;5087904;28;19958;-72
2021/06/15 02:09:13;;;;;;;;;;;12.80;99.90;;;;;;5087409;28;19908;-72
2021/06/15 02:11:40;;;;;;;;;;;12.80;99.90;;;;;;5088453;28;20441;-71
2021/06/15 02:14:06;;;;;;;;;;;12.80;99.90;;;;;;5088378;28;19908;-71
2021/06/15 02:16:32;;;;;;;;;;;12.70;99.90;;;;;;5087677;28;19916;-71
2021/06/15 02:19:00;;;;;;;;;;;12.70;99.90;;;;;;5088907;28;19908;-71
2021/06/15 02:21:26;;;;;;;;;;;12.50;99.90;;;;;;5087278;28;20284;-72
2021/06/15 02:23:55;;;;;;;;;;;12.50;99.90;;;;;;5086940;28;19931;-71
2021/06/15 02:26:21;;;;;;;;;;;12.50;99.90;;;;;;5085504;28;19912;-71
2021/06/15 02:28:46;;;;;;;;;;;12.50;99.90;;;;;;5088694;28;19966;-71
2021/06/15 02:31:17;;;;;;;;;;;12.50;99.90;;;;;;5088190;28;19987;-71
2021/06/15 02:33:48;;;;;;;;;;;12.50;99.90;;;;;;5087723;28;19916;-72
2021/06/15 02:36:44;;;;;;;;;;;12.60;99.90;;;;;;5087008;28;20424;-71
2021/06/15 02:39:11;;;;;;;;;;;12.60;99.90;;;;;;5074236;28;19908;-71
2021/06/15 02:41:38;;;;;;;;;;;12.60;99.90;;;;;;5088391;28;19966;-71
2021/06/15 02:44:04;;;;;;;;;;;12.50;99.90;;;;;;5086542;28;19916;-72
2021/06/15 02:46:31;;;;;;;;;;;12.50;99.90;;;;;;5086946;28;19998;-71
2021/06/15 02:48:58;;;;;;;;;;;12.40;99.90;;;;;;5087457;28;19919;-71
2021/06/15 02:51:29;;;;;;;;;;;12.30;99.90;;;;;;5087631;28;19991;-71
2021/06/15 02:54:15;;;;;;;;;;;12.30;99.90;;;;;;5085936;28;19988;-71
2021/06/15 02:56:42;;;;;;;;;;;12.20;99.90;;;;;;5076200;28;19920;-71
2021/06/15 02:59:08;;;;;;;;;;;12.00;99.90;;;;;;5087796;28;19908;-71
2021/06/15 03:01:33;;;;;;;;;;;12.00;99.90;;;;;;5087110;28;19923;-71
2021/06/15 03:03:58;;;;;;;;;;;12.00;99.90;;;;;;5088365;28;19930;-72
2021/06/15 03:06:24;;;;;;;;;;;11.90;99.90;;;;;;5086220;28;20420;-71
2021/06/15 03:08:49;;;;;;;;;;;11.80;99.90;;;;;;5087149;28;20003;-72
2021/06/15 03:11:18;;;;;;;;;;;11.80;99.90;;;;;;5087224;28;19912;-72
2021/06/15 03:13:48;;;;;;;;;;;11.90;99.90;;;;;;5087253;28;19919;-71
2021/06/15 03:16:17;;;;;;;;;;;11.90;99.90;;;;;;5085350;28;20192;-71
2021/06/15 03:19:02;;;;;;;;;;;11.90;99.90;;;;;;5087152;28;19908;-71
2021/06/15 03:21:30;;;;;;;;;;;11.90;99.90;;;;;;5087033;28;19916;-71
2021/06/15 03:23:58;;;;;;;;;;;11.90;99.90;;;;;;5086747;28;19959;-71
2021/06/15 03:26:26;;;;;;;;;;;11.90;99.90;;;;;;5088897;28;19908;-71
2021/06/15 03:28:55;;;;;;;;;;;11.90;99.90;;;;;;5087445;28;20007;-71
2021/06/15 03:31:21;;;;;;;;;;;11.90;99.90;;;;;;5087158;28;19923;-71
2021/06/15 03:33:49;;;;;;;;;;;11.90;99.90;;;;;;5086729;28;19923;-71
2021/06/15 03:36:15;;;;;;;;;;;11.90;99.90;;;;;;5085477;28;19951;-72
2021/06/15 03:38:41;;;;;;;;;;;11.90;99.90;;;;;;5086599;28;19908;-72
2021/06/15 03:41:08;;;;;;;;;;;11.90;99.90;;;;;;5086691;28;19926;-71
2021/06/15 03:43:36;;;;;;;;;;;11.90;99.90;;;;;;5087522;28;19972;-71
2021/06/15 03:46:07;;;;;;;;;;;12.00;99.90;;;;;;5085653;28;20041;-71
2021/06/15 03:48:34;;;;;;;;;;;11.90;99.90;;;;;;5086390;28;19916;-72
2021/06/15 03:51:01;;;;;;;;;;;11.90;99.90;;;;;;5087505;28;20233;-72
2021/06/15 03:53:31;;;;;;;;;;;11.80;99.90;;;;;;5085304;28;20027;-72
2021/06/15 03:55:58;;;;;;;;;;;11.80;99.90;;;;;;5086012;28;19912;-72
2021/06/15 03:58:24;;;;;;;;;;;11.80;99.90;;;;;;5086676;28;20009;-71
2021/06/15 04:00:50;;;;;;;;;;;11.80;99.90;;;;;;5087718;28;20259;-72
2021/06/15 04:03:16;;;;;;;;;;;11.80;99.90;;;;;;5086646;28;20050;-71
2021/06/15 04:05:42;;;;;;;;;;;11.80;99.90;;;;;;5086236;28;20008;-71
2021/06/15 04:08:11;;;;;;;;;;;11.90;99.90;;;;;;5085671;28;20001;-72
2021/06/15 04:10:38;;;;;;;;;;;12.00;99.90;;;;;;5086725;28;19912;-72
2021/06/15 04:13:04;;;;;;;;;;;12.10;99.90;;;;;;5087782;28;19912;-71
2021/06/15 04:15:32;;;;;;;;;;;12.20;99.90;;;;;;5086826;28;19912;-72
2021/06/15 04:17:58;;;;;;;;;;;12.30;99.90;;;;;;5084713;28;20014;-71
2021/06/15 04:20:25;;;;;;;;;;;12.50;99.90;;;;;;5087043;28;20308;-71
2021/06/15 04:22:51;;;;;;;;;;;12.60;99.90;;;;;;5085362;28;20373;-72
2021/06/15 04:25:19;;;;;;;;;;;12.70;99.90;;;;;;5085495;28;19923;-72
2021/06/15 04:27:46;;;;;;;;;;;12.70;99.90;;;;;;5084934;28;20011;-71
2021/06/15 04:30:12;;;;;;;;;;;12.80;99.90;;;;;;5086191;28;19908;-72
2021/06/15 04:32:45;;;;;;;;;;;12.90;99.90;;;;;;5086745;28;19930;-71
2021/06/15 04:35:11;;;;;;;;;;;12.90;99.90;;;;;;5090268;28;19907;-72
2021/06/15 04:37:37;;;;;;;;;;;13.00;99.90;;;;;;5089752;28;19943;-72
2021/06/15 04:40:09;;;;;;;;;;;13.10;99.90;;;;;;5090021;28;20822;-71
2021/06/15 04:42:36;;;;;;;;;;;13.20;99.90;;;;;;5090187;28;19922;-71
2021/06/15 04:45:02;;;;;;;;;;;13.30;99.90;;;;;;5090278;28;19935;-71
2021/06/15 04:47:29;;;;;;;;;;;13.40;99.90;;;;;;5089660;28;19912;-72
2021/06/15 04:49:56;;;;;;;;;;;13.40;99.90;;;;;;5089922;28;19908;-71
2021/06/15 04:52:25;;;;;;;;;;;13.50;99.90;;;;;;5089582;28;19916;-72
2021/06/15 04:54:52;;;;;;;;;;;13.60;99.90;;;;;;5086354;28;19962;-72
2021/06/15 04:57:20;;;;;;;;;;;13.70;99.90;;;;;;5090592;28;20246;-71
2021/06/15 04:59:47;;;;;;;;;;;13.80;99.90;;;;;;5090333;28;20314;-71
2021/06/15 05:02:13;;;;;;;;;;;13.90;99.90;;;;;;5089831;28;19908;-72
2021/06/15 05:04:39;;;;;;;;;;;14.00;99.90;;;;;;5089971;28;19923;-71
2021/06/15 05:07:05;;;;;;;;;;;14.10;99.90;;;;;;5088784;28;19908;-71
2021/06/15 05:09:33;;;;;;;;;;;14.20;99.90;;;;;;5089003;28;20431;-71
2021/06/15 05:11:59;;;;;;;;;;;14.30;99.90;;;;;;5090416;28;19908;-71
2021/06/15 05:14:26;;;;;;;;;;;14.40;99.90;;;;;;5089229;28;19977;-72
2021/06/15 05:16:52;;;;;;;;;;;14.40;99.90;;;;;;5088741;28;20006;-72
2021/06/15 05:19:18;;;;;;;;;;;14.60;99.90;;;;;;5088854;28;20369;-71
2021/06/15 05:21:51;;;;;;;;;;;14.70;99.90;;;;;;5089347;28;20003;-71
2021/06/15 05:24:49;;;;;;;;;;;14.90;99.90;;;;;;5087927;28;19915;-71
2021/06/15 05:27:18;;;;;;;;;;;15.00;99.90;;;;;;5055200;28;19998;-71
2021/06/15 05:29:44;;;;;;;;;;;15.30;99.90;;;;;;5089536;28;19917;-72
2021/06/15 05:32:10;;;;;;;;;;;15.50;99.90;;;;;;5089450;28;20257;-71
2021/06/15 05:34:36;;;;;;;;;;;15.80;99.90;;;;;;5089291;28;19953;-71
2021/06/15 05:37:02;;;;;;;;;;;16.10;99.90;;;;;;5088646;28;20366;-71
2021/06/15 05:39:29;;;;;;;;;;;16.40;99.90;;;;;;5089726;28;19999;-71
2021/06/15 05:41:54;;;;;;;;;;;16.80;99.90;;;;;;5088908;28;19965;-71
2021/06/15 05:44:20;;;;;;;;;;;17.00;99.90;;;;;;5087339;28;19916;-71
2021/06/15 05:46:45;;;;;;;;;;;17.50;99.90;;;;;;5088323;28;19995;-71
2021/06/15 05:49:11;;;;;;;;;;;18.00;99.90;;;;;;5088673;28;19977;-72
2021/06/15 05:51:38;;;;;;;;;;;18.50;99.90;;;;;;5087832;28;20101;-72
2021/06/15 05:54:03;;;;;;;;;;;18.90;99.90;;;;;;5088453;28;19908;-71
2021/06/15 05:56:29;;;;;;;;;;;19.10;99.90;;;;;;5089913;28;20463;-71
2021/06/15 05:58:55;;;;;;;;;;;19.50;99.90;;;;;;5089002;28;19908;-71
2021/06/15 06:01:20;;;;;;;;;;;19.90;99.90;;;;;;5089561;28;19912;-71
2021/06/15 06:03:55;;;;;;;;;;;20.40;99.90;;;;;;5089720;28;19916;-71
2021/06/15 06:09:04;;;;;;;;;;;21.30;99.90;;;;;;5089339;28;19958;-71
2021/06/15 06:11:30;;;;;;;;;;;21.80;99.90;;;;;;5089176;28;20334;-71
2021/06/15 06:13:55;;;;;;;;;;;22.20;99.90;;;;;;5089107;28;19947;-72
2021/06/15 06:16:21;;;;;;;;;;;22.60;99.90;;;;;;5089019;28;19916;-71
2021/06/15 06:18:46;;;;;;;;;;;23.00;99.90;;;;;;5088648;28;19920;-72
2021/06/15 06:21:12;;;;;;;;;;;23.20;99.90;;;;;;5089129;28;20277;-71
2021/06/15 06:23:37;;;;;;;;;;;23.50;99.90;;;;;;5086616;28;19916;-72
2021/06/15 06:26:03;;;;;;;;;;;23.90;99.90;;;;;;5088269;28;19908;-71
2021/06/15 06:28:29;;;;;;;;;;;24.30;99.90;;;;;;5089707;28;20341;-72
2021/06/15 06:30:54;;;;;;;;;;;24.60;99.90;;;;;;5088584;28;19916;-72
2021/06/15 06:33:20;;;;;;;;;;;25.10;99.90;;;;;;5088774;28;20331;-72
2021/06/15 06:35:45;;;;;;;;;;;25.30;98.30;;;;;;5088135;28;20389;-72
2021/06/15 06:38:11;;;;;;;;;;;25.70;98.10;;;;;;5088351;28;19908;-72
2021/06/15 06:40:37;;;;;;;;;;;25.60;98.00;;;;;;5088247;28;20008;-72
2021/06/15 06:43:03;;;;;;;;;;;26.00;98.40;;;;;;5089012;28;19923;-72
2021/06/15 06:45:28;;;;;;;;;;;26.10;98.10;;;;;;5088779;28;19918;-72
2021/06/15 06:47:54;;;;;;;;;;;26.50;97.10;;;;;;5087849;28;19912;-72
2021/06/15 06:50:19;;;;;;;;;;;26.60;96.10;;;;;;5088557;28;19908;-72
2021/06/15 06:52:45;;;;;;;;;;;27.00;96.80;;;;;;5086973;28;19908;-72
2021/06/15 06:55:11;;;;;;;;;;;27.50;95.70;;;;;;5088407;28;19908;-72
2021/06/15 06:57:36;;;;;;;;;;;28.00;93.90;;;;;;5086996;28;19987;-72
2021/06/15 07:00:03;;;;;;;;;;;27.90;92.80;;;;;;5088531;28;19917;-72
2021/06/15 07:02:28;;;;;;;;;;;27.20;91.70;;;;;;5088765;28;19908;-72
2021/06/15 07:04:54;;;;;;;;;;;27.60;91.40;;;;;;5087740;28;19947;-72
2021/06/15 07:07:20;;;;;;;;;;;27.90;91.00;;;;;;5087336;28;19938;-72
2021/06/15 07:09:45;;;;;;;;;;;27.80;88.90;;;;;;5087917;28;20383;-72
2021/06/15 07:12:11;;;;;;;;;;;28.20;91.00;;;;;;5088707;28;20423;-72
2021/06/15 07:14:36;;;;;;;;;;;28.60;89.90;;;;;;5087988;28;19912;-72
2021/06/15 07:17:02;;;;;;;;;;;28.80;88.40;;;;;;5087412;28;20357;-73
2021/06/15 07:19:27;;;;;;;;;;;29.50;86.40;;;;;;5087558;28;19954;-72
2021/06/15 07:21:53;;;;;;;;;;;30.00;89.50;;;;;;5088411;28;20353;-72
2021/06/15 07:24:18;;;;;;;;;;;30.50;84.50;;;;;;5087414;28;19912;-72
2021/06/15 07:26:44;;;;;;;;;;;30.80;80.60;;;;;;5087525;28;20441;-72
2021/06/15 07:29:09;;;;;;;;;;;31.20;79.30;;;;;;5087687;28;19912;-72
2021/06/15 07:31:35;;;;;;;;;;;31.20;82.70;;;;;;5087388;28;20397;-72
2021/06/15 07:34:00;;;;;;;;;;;31.30;79.70;;;;;;5089161;28;19931;-72
2021/06/15 07:36:26;;;;;;;;;;;31.20;78.80;;;;;;5086875;28;19916;-72
2021/06/15 07:38:52;;;;;;;;;;;30.90;83.10;;;;;;5087080;28;19923;-72
2021/06/15 07:41:18;;;;;;;;;;;31.10;78.00;;;;;;5087428;28;19966;-72
2021/06/15 07:43:43;;;;;;;;;;;31.30;80.30;;;;;;5087639;28;19986;-72
2021/06/15 07:46:09;;;;;;;;;;;31.10;80.10;;;;;;5085463;28;21398;-72
2021/06/15 07:48:35;;;;;;;;;;;31.30;81.70;;;;;;5087279;28;19908;-72
2021/06/15 07:51:00;;;;;;;;;;;31.60;77.50;;;;;;5086606;28;20361;-72
2021/06/15 07:53:26;;;;;;;;;;;31.80;78.60;;;;;;5086298;28;20052;-72
2021/06/15 07:55:51;;;;;;;;;;;32.00;79.80;;;;;;5086541;28;19923;-72
2021/06/15 07:58:17;;;;;;;;;;;32.20;73.90;;;;;;5087456;28;19915;-72
2021/06/15 08:00:42;;;;;;;;;;;32.00;70.60;;;;;;5087338;28;20409;-71
2021/06/15 08:03:08;;;;;;;;;;;32.10;72.90;;;;;;5087940;28;20277;-73
2021/06/15 08:05:33;;;;;;;;;;;32.10;73.80;;;;;;5086923;28;19919;-72
2021/06/15 08:08:00;;;;;;;;;;;32.00;72.40;;;;;;5086095;28;20434;-72
2021/06/15 08:10:26;;;;;;;;;;;32.10;71.10;;;;;;5087757;28;19908;-73
2021/06/15 08:12:51;;;;;;;;;;;32.20;74.70;;;;;;5087257;28;19977;-72
2021/06/15 08:15:17;;;;;;;;;;;32.40;73.70;;;;;;5085711;28;19919;-72
2021/06/15 08:17:43;;;;;;;;;;;32.40;73.70;;;;;;5085329;28;20326;-71
2021/06/15 08:20:09;;;;;;;;;;;32.50;75.70;;;;;;5087819;28;20361;-72
2021/06/15 08:22:35;;;;;;;;;;;32.70;76.40;;;;;;5085202;28;20361;-72
2021/06/15 08:25:00;;;;;;;;;;;32.80;70.40;;;;;;5084951;28;19924;-72
2021/06/15 08:27:26;;;;;;;;;;;32.80;73.60;;;;;;5085677;28;20023;-72
2021/06/15 08:29:52;;;;;;;;;;;32.60;71.60;;;;;;5086491;28;19915;-72
2021/06/15 08:32:17;;;;;;;;;;;32.60;71.50;;;;;;5085983;28;19916;-72
2021/06/15 08:34:43;;;;;;;;;;;32.60;70.90;;;;;;5086660;28;20357;-71
2021/06/15 08:37:08;;;;;;;;;;;32.60;73.70;;;;;;5085192;28;20192;-72
2021/06/15 08:39:34;;;;;;;;;;;32.50;69.00;;;;;;5086165;28;20208;-75
2021/06/15 08:41:59;;;;;;;;;;;32.30;73.60;;;;;;5086246;28;19927;-72
2021/06/15 08:44:25;;;;;;;;;;;32.30;71.00;;;;;;5086802;28;19912;-71
2021/06/15 08:46:51;;;;;;;;;;;32.30;67.50;;;;;;5085048;28;19908;-71
2021/06/15 08:49:17;;;;;;;;;;;32.30;71.10;;;;;;5085645;28;19920;-71
2021/06/15 08:51:42;;;;;;;;;;;32.50;71.40;;;;;;5084794;28;19912;-71
2021/06/15 08:54:10;;;;;;;;;;;32.70;69.30;;;;;;5082100;28;19909;-71
2021/06/15 08:56:36;;;;;;;;;;;32.70;66.80;;;;;;5085603;28;19999;-71
2021/06/15 08:59:01;;;;;;;;;;;32.60;71.30;;;;;;5086123;28;20000;-71
2021/06/15 09:01:27;;;;;;;;;;;32.80;69.60;;;;;;5086153;28;20352;-72
2021/06/15 09:03:53;;;;;;;;;;;33.00;72.90;;;;;;5085767;28;19919;-71
2021/06/15 09:06:19;;;;;;;;;;;33.10;69.20;;;;;;5084697;28;19927;-71
2021/06/15 09:08:55;;;;;;;;;;;33.00;68.50;;;;;;5086492;28;20373;-71
2021/06/15 09:11:21;;;;;;;;;;;33.10;65.00;;;;;;5086216;28;19908;-71
2021/06/15 09:13:47;;;;;;;;;;;33.10;62.80;;;;;;5086614;28;19912;-71
2021/06/15 09:16:19;;;;;;;;;;;33.30;66.90;;;;;;5085629;28;20006;-71
2021/06/15 09:18:45;;;;;;;;;;;33.50;71.80;;;;;;5086555;28;20232;-71
2021/06/15 09:21:10;;;;;;;;;;;33.60;68.00;;;;;;5089727;28;19908;-71
2021/06/15 09:23:37;;;;;;;;;;;33.70;67.80;;;;;;5087840;28;19942;-71
2021/06/15 09:26:03;;;;;;;;;;;33.70;63.10;;;;;;5089204;28;19952;-71
2021/06/15 09:28:29;;;;;;;;;;;33.10;65.60;;;;;;5089254;28;19912;-71
2021/06/15 09:30:56;;;;;;;;;;;32.90;68.70;;;;;;5089155;28;19922;-71
2021/06/15 09:33:36;;;;;;;;;;;32.60;64.90;;;;;;5090118;28;20222;-71
2021/06/15 09:36:06;;;;;;;;;;;32.50;70.00;;;;;;5088495;28;19943;-71
2021/06/15 09:38:32;;;;;;;;;;;32.70;70.00;;;;;;5089141;28;20420;-71
2021/06/15 09:40:58;;;;;;;;;;;33.10;67.00;;;;;;5090077;28;19947;-71
2021/06/15 09:43:23;;;;;;;;;;;33.30;68.90;;;;;;5088316;28;19977;-71
2021/06/15 09:45:49;;;;;;;;;;;33.60;65.90;;;;;;5089095;28;20285;-71
2021/06/15 09:48:23;;;;;;;;;;;33.70;63.70;;;;;;5089471;28;20896;-72
2021/06/15 09:50:53;;;;;;;;;;;33.40;60.90;;;;;;5088587;28;19912;-72
2021/06/15 09:53:22;;;;;;;;;;;33.20;66.40;;;;;;5087989;28;19969;-72
2021/06/15 09:55:48;;;;;;;;;;;33.20;67.80;;;;;;5089138;28;20357;-71
2021/06/15 09:58:15;;;;;;;;;;;33.10;66.40;;;;;;5089148;28;19909;-71
2021/06/15 10:00:41;;;;;;;;;;;33.20;65.70;;;;;;5089070;28;19995;-71
2021/06/15 10:03:14;;;;;;;;;;;33.10;63.80;;;;;;5088221;28;20186;-71
2021/06/15 10:05:39;;;;;;;;;;;33.30;69.20;;;;;;5087438;28;19920;-71
2021/06/15 10:08:06;;;;;;;;;;;33.30;63.90;;;;;;5088507;28;19953;-71
2021/06/15 10:10:33;;;;;;;;;;;33.40;61.70;;;;;;5087989;28;19916;-71
2021/06/15 10:12:59;;;;;;;;;;;33.40;62.70;;;;;;5088617;28;19958;-71
2021/06/15 10:15:27;;;;;;;;;;;33.40;62.40;;;;;;5088175;28;20288;-71
2021/06/15 10:17:52;;;;;;;;;;;33.50;62.20;;;;;;5088449;28;20297;-71
2021/06/15 10:20:19;;;;;;;;;;;33.30;67.70;;;;;;5088592;28;19919;-71
2021/06/15 10:22:45;;;;;;;;;;;33.40;62.50;;;;;;5084703;28;19931;-71
2021/06/15 10:25:11;;;;;;;;;;;33.20;63.10;;;;;;5093166;28;19927;-71
2021/06/15 10:27:38;;;;;;;;;;;33.00;65.00;;;;;;5087426;28;19955;-71
2021/06/15 10:30:04;;;;;;;;;;;33.00;64.00;;;;;;5088268;28;20232;-70
2021/06/15 10:32:30;;;;;;;;;;;32.70;64.10;;;;;;5088415;28;19912;-71
2021/06/15 10:35:12;;;;;;;;;;;32.50;62.20;;;;;;5087350;28;19943;-71
2021/06/15 10:37:38;;;;;;;;;;;32.30;64.40;;;;;;5086758;28;19958;-71
2021/06/15 10:40:27;;;;;;;;;;;32.10;64.90;;;;;;5087935;28;19916;-70
2021/06/15 10:43:08;;;;;;;;;;;32.10;64.30;;;;;;5079347;28;19916;-71
2021/06/15 10:45:34;;;;;;;;;;;32.20;63.70;;;;;;5088008;28;19926;-70
2021/06/15 10:48:05;;;;;;;;;;;32.40;71.30;;;;;;5088134;28;19908;-71
2021/06/15 10:51:00;;;;;;;;;;;32.70;63.50;;;;;;5088683;28;19908;-71
2021/06/15 10:53:33;;;;;;;;;;;32.90;61.40;;;;;;5078020;28;19987;-71
2021/06/15 10:56:03;;;;;;;;;;;33.00;67.00;;;;;;5087154;28;20369;-71
2021/06/15 10:58:28;;;;;;;;;;;33.00;63.00;;;;;;5086951;28;19922;-70
2021/06/15 11:00:54;;;;;;;;;;;33.00;64.40;;;;;;5088449;28;19916;-71
2021/06/15 11:03:19;;;;;;;;;;;33.20;62.70;;;;;;5087630;28;19908;-71
2021/06/15 11:05:51;;;;;;;;;;;33.20;60.00;;;;;;5086893;28;19916;-70
2021/06/15 11:08:27;;;;;;;;;;;33.30;59.30;;;;;;5087716;28;19908;-70
2021/06/15 11:11:15;;;;;;;;;;;33.00;61.60;;;;;;5088049;28;20346;-70
2021/06/15 11:13:41;;;;;;;;;;;33.20;61.00;;;;;;5078872;28;19914;-71
2021/06/15 11:16:07;;;;;;;;;;;33.50;62.40;;;;;;5087447;28;19911;-71
2021/06/15 11:18:32;;;;;;;;;;;33.40;59.50;;;;;;5088154;28;19923;-71
2021/06/15 11:20:58;;;;;;;;;;;33.10;59.70;;;;;;5087388;28;20483;-71
2021/06/15 11:23:25;;;;;;;;;;;32.80;57.80;;;;;;5087145;28;19916;-71
2021/06/15 11:25:55;;;;;;;;;;;32.40;60.00;;;;;;5086538;28;19912;-70
2021/06/15 11:28:36;;;;;;;;;;;32.00;59.90;;;;;;5087065;28;19908;-71
2021/06/15 11:31:17;;;;;;;;;;;32.10;62.40;;;;;;5088279;28;20257;-71
2021/06/15 11:33:58;;;;;;;;;;;32.30;59.10;;;;;;5087976;28;19912;-70
2021/06/15 11:36:39;;;;;;;;;;;32.50;58.10;;;;;;5087596;28;19908;-70
2021/06/15 11:39:23;;;;;;;;;;;32.90;58.50;;;;;;5084954;28;21173;-71
2021/06/15 11:42:17;;;;;;;;;;;33.40;57.10;;;;;;5088042;28;19916;-70
2021/06/15 11:44:46;;;;;;;;;;;33.80;57.10;;;;;;5087124;28;19976;-70
2021/06/15 11:47:25;;;;;;;;;;;34.00;56.40;;;;;;5086565;28;19962;-71
2021/06/15 11:50:11;;;;;;;;;;;34.20;55.80;;;;;;5087113;28;19984;-71
2021/06/15 11:52:39;;;;;;;;;;;34.00;59.30;;;;;;5087259;28;19917;-71
2021/06/15 11:55:06;;;;;;;;;;;33.90;57.10;;;;;;5087710;28;19981;-71
2021/06/15 11:57:32;;;;;;;;;;;33.90;57.30;;;;;;5086968;28;19909;-71
2021/06/15 11:59:58;;;;;;;;;;;33.80;56.20;;;;;;5087377;28;19919;-70
2021/06/15 12:02:23;;;;;;;;;;;33.70;54.70;;;;;;5087986;28;19912;-70
2021/06/15 12:05:08;;;;;;;;;;;33.80;57.30;;;;;;5087337;28;19952;-71
2021/06/15 12:07:34;;;;;;;;;;;33.70;56.30;;;;;;5086053;28;19916;-70
2021/06/15 12:10:15;;;;;;;;;;;33.70;53.70;;;;;;5087096;28;20373;-71
2021/06/15 12:13:13;;;;;;;;;;;33.60;53.90;;;;;;5088128;28;19916;-70
2021/06/15 12:15:46;;;;;;;;;;;33.60;54.20;;;;;;5056365;28;19912;-71
2021/06/15 12:18:16;;;;;;;;;;;33.50;54.30;;;;;;5087740;28;19960;-74
2021/06/15 12:20:42;;;;;;;;;;;33.40;53.80;;;;;;5088067;28;19920;-71
2021/06/15 12:23:20;;;;;;;;;;;33.10;53.00;;;;;;5087517;28;19915;-71
2021/06/15 12:25:46;;;;;;;;;;;33.00;54.20;;;;;;5086346;28;19916;-71
2021/06/15 12:28:13;;;;;;;;;;;33.10;55.50;;;;;;5087260;28;19920;-71
2021/06/15 12:30:39;;;;;;;;;;;33.40;60.60;;;;;;5086834;28;19912;-71
2021/06/15 12:33:05;;;;;;;;;;;33.70;58.60;;;;;;5087365;28;19908;-71
2021/06/15 12:35:31;;;;;;;;;;;33.70;52.50;;;;;;5086083;28;19916;-71
2021/06/15 12:37:56;;;;;;;;;;;33.80;56.70;;;;;;5086566;28;20280;-71
2021/06/15 12:40:22;;;;;;;;;;;33.80;52.40;;;;;;5086915;28;19923;-71
2021/06/15 12:42:48;;;;;;;;;;;34.10;58.30;;;;;;5086954;28;19923;-71
2021/06/15 12:45:14;;;;;;;;;;;34.40;55.00;;;;;;5086864;28;19943;-71
2021/06/15 12:47:43;;;;;;;;;;;34.40;53.60;;;;;;5085990;28;20864;-71
2021/06/15 12:50:19;;;;;;;;;;;34.30;50.80;;;;;;5084709;28;19927;-71
2021/06/15 12:52:45;;;;;;;;;;;34.10;52.70;;;;;;5084436;28;20444;-71
2021/06/15 12:55:12;;;;;;;;;;;34.00;52.80;;;;;;5089188;28;19916;-71
2021/06/15 12:57:37;;;;;;;;;;;34.00;54.50;;;;;;5089240;28;19919;-70
2021/06/15 13:00:05;;;;;;;;;;;34.20;51.50;;;;;;5090500;28;19987;-71
2021/06/15 13:02:31;;;;;;;;;;;34.40;54.20;;;;;;5091127;28;19973;-71
2021/06/15 13:04:58;;;;;;;;;;;34.40;52.00;;;;;;5090009;28;20442;-71
2021/06/15 13:07:25;;;;;;;;;;;34.50;54.10;;;;;;5089201;28;20094;-71
2021/06/15 13:09:50;;;;;;;;;;;34.60;50.20;;;;;;5089624;28;19959;-71
2021/06/15 13:12:23;;;;;;;;;;;34.50;50.50;;;;;;5090923;28;20372;-71
2021/06/15 13:14:56;;;;;;;;;;;34.50;51.10;;;;;;5090376;28;19927;-71
2021/06/15 13:17:23;;;;;;;;;;;34.30;54.90;;;;;;5090073;28;20228;-71
2021/06/15 13:19:51;;;;;;;;;;;34.20;49.80;;;;;;5090511;28;19909;-71
2021/06/15 13:22:37;;;;;;;;;;;34.30;53.40;;;;;;5090498;28;19912;-71
2021/06/15 13:25:04;;;;;;;;;;;34.10;53.50;;;;;;5089588;28;19984;-71
2021/06/15 13:27:39;;;;;;;;;;;33.80;50.30;;;;;;5088444;28;19916;-71
2021/06/15 13:30:05;;;;;;;;;;;33.70;53.70;;;;;;5087980;28;20007;-71
2021/06/15 13:32:30;;;;;;;;;;;33.80;54.60;;;;;;5090855;28;20011;-71
2021/06/15 13:35:02;;;;;;;;;;;34.00;52.00;;;;;;5090498;28;19916;-71
2021/06/15 13:37:29;;;;;;;;;;;33.90;51.30;;;;;;5090157;28;19920;-71
2021/06/15 13:39:55;;;;;;;;;;;33.70;51.80;;;;;;5089498;28;20356;-71
2021/06/15 13:42:25;;;;;;;;;;;33.40;50.80;;;;;;5090359;28;19912;-71
2021/06/15 13:45:02;;;;;;;;;;;33.30;50.30;;;;;;5089310;28;19931;-71
2021/06/15 13:47:28;;;;;;;;;;;33.40;52.70;;;;;;5086047;28;19924;-71
2021/06/15 13:49:53;;;;;;;;;;;33.50;53.00;;;;;;5089038;28;19909;-71
2021/06/15 13:52:19;;;;;;;;;;;33.80;49.80;;;;;;5090177;28;20408;-71
2021/06/15 13:54:44;;;;;;;;;;;34.00;49.00;;;;;;5088320;28;19962;-72
2021/06/15 13:57:10;;;;;;;;;;;34.20;53.00;;;;;;5087359;28;20015;-71
2021/06/15 13:59:35;;;;;;;;;;;34.50;53.20;;;;;;5089856;28;20560;-71
2021/06/15 14:02:01;;;;;;;;;;;34.70;54.40;;;;;;5090017;28;19950;-71
2021/06/15 14:04:26;;;;;;;;;;;35.10;55.00;;;;;;5089845;28;19920;-71
2021/06/15 14:06:51;;;;;;;;;;;35.30;54.40;;;;;;5087951;28;19915;-71
2021/06/15 14:09:17;;;;;;;;;;;35.20;48.20;;;;;;5088037;28;20433;-71
2021/06/15 14:11:42;;;;;;;;;;;35.10;51.60;;;;;;5089757;28;19927;-71
2021/06/15 14:14:08;;;;;;;;;;;34.80;50.10;;;;;;5089384;28;19922;-71
2021/06/15 14:16:33;;;;;;;;;;;34.70;49.10;;;;;;5086580;28;19916;-71
2021/06/15 14:18:59;;;;;;;;;;;34.50;48.70;;;;;;5088150;28;19908;-71
2021/06/15 14:21:24;;;;;;;;;;;34.50;50.50;;;;;;5088574;28;19915;-72
2021/06/15 14:23:50;;;;;;;;;;;34.70;52.80;;;;;;5089010;28;20288;-71